sensor_id;sensor_type;location;lat;lon;timestamp;pressure;altitude;pressure_sealevel;temperature
66170;BMP280;66757;44.024;20.456;2023-01-25T00:01:33;99312.84;;;4.36
66170;BMP280;66757;44.024;20.456;2023-01-25T00:03:58;99307.41;;;4.30
66170;BMP280;66757;44.024;20.456;2023-01-25T00:06:24;99310.50;;;4.09
66170;BMP280;66757;44.024;20.456;2023-01-25T00:08:50;99305.75;;;4.36
66170;BMP280;66757;44.024;20.456;2023-01-25T00:11:15;99304.22;;;4.28
66170;BMP280;66757;44.024;20.456;2023-01-25T00:13:42;99307.50;;;4.24
66170;BMP280;66757;44.024;20.456;2023-01-25T00:16:08;99310.50;;;4.09
66170;BMP280;66757;44.024;20.456;2023-01-25T00:18:34;99307.44;;;4.12
66170;BMP280;66757;44.024;20.456;2023-01-25T00:20:59;99314.75;;;3.92
66170;BMP280;66757;44.024;20.456;2023-01-25T00:23:35;99314.44;;;3.82
66170;BMP280;66757;44.024;20.456;2023-01-25T00:26:00;99310.94;;;4.06
66170;BMP280;66757;44.024;20.456;2023-01-25T00:28:26;99320.56;;;4.12
66170;BMP280;66757;44.024;20.456;2023-01-25T00:30:51;99324.06;;;4.06
66170;BMP280;66757;44.024;20.456;2023-01-25T00:35:47;99324.41;;;4.28
66170;BMP280;66757;44.024;20.456;2023-01-25T00:38:27;99319.34;;;4.45
66170;BMP280;66757;44.024;20.456;2023-01-25T00:40:53;99318.97;;;3.93
66170;BMP280;66757;44.024;20.456;2023-01-25T00:43:19;99319.38;;;4.26
66170;BMP280;66757;44.024;20.456;2023-01-25T00:45:44;99315.50;;;4.47
66170;BMP280;66757;44.024;20.456;2023-01-25T00:48:10;99316.59;;;4.40
66170;BMP280;66757;44.024;20.456;2023-01-25T00:50:36;99315.31;;;4.12
66170;BMP280;66757;44.024;20.456;2023-01-25T00:53:02;99321.78;;;4.46
66170;BMP280;66757;44.024;20.456;2023-01-25T00:55:27;99316.63;;;4.21
66170;BMP280;66757;44.024;20.456;2023-01-25T00:57:53;99318.09;;;4.66
66170;BMP280;66757;44.024;20.456;2023-01-25T01:00:19;99322.28;;;4.55
66170;BMP280;66757;44.024;20.456;2023-01-25T01:02:46;99313.81;;;4.53
66170;BMP280;66757;44.024;20.456;2023-01-25T01:05:12;99314.19;;;4.38
66170;BMP280;66757;44.024;20.456;2023-01-25T01:07:38;99311.88;;;4.60
66170;BMP280;66757;44.024;20.456;2023-01-25T01:10:04;99320.13;;;4.63
66170;BMP280;66757;44.024;20.456;2023-01-25T01:12:30;99318.50;;;4.51
66170;BMP280;66757;44.024;20.456;2023-01-25T01:14:55;99312.66;;;4.60
66170;BMP280;66757;44.024;20.456;2023-01-25T01:17:20;99312.66;;;4.60
66170;BMP280;66757;44.024;20.456;2023-01-25T01:19:46;99316.25;;;4.36
66170;BMP280;66757;44.024;20.456;2023-01-25T01:22:11;99309.28;;;4.42
66170;BMP280;66757;44.024;20.456;2023-01-25T01:24:37;99302.72;;;4.51
66170;BMP280;66757;44.024;20.456;2023-01-25T01:27:03;99304.19;;;4.47
66170;BMP280;66757;44.024;20.456;2023-01-25T01:29:28;99299.75;;;4.47
66170;BMP280;66757;44.024;20.456;2023-01-25T01:31:53;99300.78;;;4.46
66170;BMP280;66757;44.024;20.456;2023-01-25T01:34:20;99305.00;;;4.59
66170;BMP280;66757;44.024;20.456;2023-01-25T01:36:46;99286.69;;;4.41
66170;BMP280;66757;44.024;20.456;2023-01-25T01:39:12;99292.66;;;4.48
66170;BMP280;66757;44.024;20.456;2023-01-25T01:41:37;99282.50;;;4.51
66170;BMP280;66757;44.024;20.456;2023-01-25T01:44:04;99280.97;;;4.44
66170;BMP280;66757;44.024;20.456;2023-01-25T01:46:37;99285.50;;;4.07
66170;BMP280;66757;44.024;20.456;2023-01-25T01:51:47;99287.31;;;4.06
66170;BMP280;66757;44.024;20.456;2023-01-25T01:57:11;99278.94;;;4.46
66170;BMP280;66757;44.024;20.456;2023-01-25T02:00:06;99273.22;;;4.19
66170;BMP280;66757;44.024;20.456;2023-01-25T02:02:33;99282.34;;;4.16
66170;BMP280;66757;44.024;20.456;2023-01-25T02:05:00;99281.56;;;4.16
66170;BMP280;66757;44.024;20.456;2023-01-25T02:07:37;99278.28;;;4.02
66170;BMP280;66757;44.024;20.456;2023-01-25T02:10:06;99280.03;;;3.72
66170;BMP280;66757;44.024;20.456;2023-01-25T02:12:34;99281.75;;;3.96
66170;BMP280;66757;44.024;20.456;2023-01-25T02:14:59;99272.28;;;4.31
66170;BMP280;66757;44.024;20.456;2023-01-25T02:17:27;99265.47;;;4.24
66170;BMP280;66757;44.024;20.456;2023-01-25T02:22:42;99253.47;;;4.16
66170;BMP280;66757;44.024;20.456;2023-01-25T02:25:11;99264.09;;;4.21
66170;BMP280;66757;44.024;20.456;2023-01-25T02:27:41;99265.66;;;4.11
66170;BMP280;66757;44.024;20.456;2023-01-25T02:30:10;99262.53;;;4.02
66170;BMP280;66757;44.024;20.456;2023-01-25T02:32:36;99263.63;;;4.13
66170;BMP280;66757;44.024;20.456;2023-01-25T02:35:01;99268.63;;;4.44
66170;BMP280;66757;44.024;20.456;2023-01-25T02:37:27;99260.16;;;4.30
66170;BMP280;66757;44.024;20.456;2023-01-25T02:39:53;99265.47;;;4.24
66170;BMP280;66757;44.024;20.456;2023-01-25T02:42:18;99256.44;;;4.20
66170;BMP280;66757;44.024;20.456;2023-01-25T02:44:46;99263.78;;;4.29
66170;BMP280;66757;44.024;20.456;2023-01-25T02:47:11;99261.84;;;4.55
66170;BMP280;66757;44.024;20.456;2023-01-25T02:49:37;99266.34;;;4.66
66170;BMP280;66757;44.024;20.456;2023-01-25T02:52:03;99255.81;;;4.66
66170;BMP280;66757;44.024;20.456;2023-01-25T02:54:29;99255.25;;;4.64
66170;BMP280;66757;44.024;20.456;2023-01-25T02:56:55;99251.50;;;4.72
66170;BMP280;66757;44.024;20.456;2023-01-25T02:59:20;99246.34;;;4.65
66170;BMP280;66757;44.024;20.456;2023-01-25T03:01:46;99251.16;;;4.38
66170;BMP280;66757;44.024;20.456;2023-01-25T03:04:11;99240.19;;;4.11
66170;BMP280;66757;44.024;20.456;2023-01-25T03:06:38;99240.50;;;4.03
66170;BMP280;66757;44.024;20.456;2023-01-25T03:09:05;99241.22;;;4.10
66170;BMP280;66757;44.024;20.456;2023-01-25T03:11:31;99242.97;;;4.16
66170;BMP280;66757;44.024;20.456;2023-01-25T03:13:56;99234.78;;;4.24
66170;BMP280;66757;44.024;20.456;2023-01-25T03:16:22;99229.25;;;4.14
66170;BMP280;66757;44.024;20.456;2023-01-25T03:18:47;99230.47;;;3.45
66170;BMP280;66757;44.024;20.456;2023-01-25T03:21:18;99230.13;;;3.17
66170;BMP280;66757;44.024;20.456;2023-01-25T03:23:44;99229.47;;;3.21
66170;BMP280;66757;44.024;20.456;2023-01-25T03:26:11;99233.97;;;3.14
66170;BMP280;66757;44.024;20.456;2023-01-25T03:28:38;99244.84;;;3.18
66170;BMP280;66757;44.024;20.456;2023-01-25T03:31:04;99236.31;;;3.47
66170;BMP280;66757;44.024;20.456;2023-01-25T03:33:31;99238.28;;;3.88
66170;BMP280;66757;44.024;20.456;2023-01-25T03:35:56;99240.50;;;4.03
66170;BMP280;66757;44.024;20.456;2023-01-25T03:38:22;99243.94;;;3.67
66170;BMP280;66757;44.024;20.456;2023-01-25T03:40:48;99237.19;;;3.59
66170;BMP280;66757;44.024;20.456;2023-01-25T03:43:14;99240.66;;;3.72
66170;BMP280;66757;44.024;20.456;2023-01-25T03:45:39;99240.25;;;3.93
66170;BMP280;66757;44.024;20.456;2023-01-25T03:48:05;99239.31;;;3.87
66170;BMP280;66757;44.024;20.456;2023-01-25T03:50:31;99242.09;;;3.31
66170;BMP280;66757;44.024;20.456;2023-01-25T03:52:56;99233.41;;;2.81
66170;BMP280;66757;44.024;20.456;2023-01-25T03:55:34;99242.25;;;3.36
66170;BMP280;66757;44.024;20.456;2023-01-25T03:58:00;99245.28;;;3.33
66170;BMP280;66757;44.024;20.456;2023-01-25T04:00:25;99244.06;;;3.11
66170;BMP280;66757;44.024;20.456;2023-01-25T04:02:51;99245.63;;;2.93
66170;BMP280;66757;44.024;20.456;2023-01-25T04:05:17;99242.41;;;2.91
66170;BMP280;66757;44.024;20.456;2023-01-25T04:07:42;99238.78;;;2.92
66170;BMP280;66757;44.024;20.456;2023-01-25T04:10:08;99236.16;;;2.92
66170;BMP280;66757;44.024;20.456;2023-01-25T04:12:34;99241.84;;;3.14
66170;BMP280;66757;44.024;20.456;2023-01-25T04:14:59;99239.59;;;3.18
66170;BMP280;66757;44.024;20.456;2023-01-25T04:17:25;99242.47;;;3.10
66170;BMP280;66757;44.024;20.456;2023-01-25T04:19:51;99243.16;;;2.67
66170;BMP280;66757;44.024;20.456;2023-01-25T04:22:17;99236.22;;;3.11
66170;BMP280;66757;44.024;20.456;2023-01-25T04:24:42;99238.44;;;3.07
66170;BMP280;66757;44.024;20.456;2023-01-25T04:27:08;99246.91;;;3.09
66170;BMP280;66757;44.024;20.456;2023-01-25T04:29:34;99244.72;;;3.31
66170;BMP280;66757;44.024;20.456;2023-01-25T04:32:00;99246.28;;;3.14
66170;BMP280;66757;44.024;20.456;2023-01-25T04:34:25;99248.13;;;3.31
66170;BMP280;66757;44.024;20.456;2023-01-25T04:36:51;99246.03;;;3.40
66170;BMP280;66757;44.024;20.456;2023-01-25T04:39:18;99249.94;;;3.13
66170;BMP280;66757;44.024;20.456;2023-01-25T04:41:43;99246.47;;;3.37
66170;BMP280;66757;44.024;20.456;2023-01-25T04:44:09;99245.03;;;3.59
66170;BMP280;66757;44.024;20.456;2023-01-25T04:46:34;99242.56;;;3.64
66170;BMP280;66757;44.024;20.456;2023-01-25T04:49:00;99246.88;;;3.59
66170;BMP280;66757;44.024;20.456;2023-01-25T04:51:25;99246.41;;;3.98
66170;BMP280;66757;44.024;20.456;2023-01-25T04:53:51;99252.03;;;3.84
66170;BMP280;66757;44.024;20.456;2023-01-25T04:56:16;99254.75;;;3.95
66170;BMP280;66757;44.024;20.456;2023-01-25T04:58:42;99250.03;;;4.16
66170;BMP280;66757;44.024;20.456;2023-01-25T05:01:07;99248.69;;;3.95
66170;BMP280;66757;44.024;20.456;2023-01-25T05:03:33;99251.31;;;3.77
66170;BMP280;66757;44.024;20.456;2023-01-25T05:05:58;99251.16;;;3.72
66170;BMP280;66757;44.024;20.456;2023-01-25T05:08:24;99256.56;;;3.58
66170;BMP280;66757;44.024;20.456;2023-01-25T05:10:52;99251.50;;;3.38
66170;BMP280;66757;44.024;20.456;2023-01-25T05:13:18;99249.63;;;3.46
66170;BMP280;66757;44.024;20.456;2023-01-25T05:15:43;99248.72;;;3.33
66170;BMP280;66757;44.024;20.456;2023-01-25T05:18:09;99251.00;;;3.85
66170;BMP280;66757;44.024;20.456;2023-01-25T05:20:34;99248.88;;;4.12
66170;BMP280;66757;44.024;20.456;2023-01-25T05:23:00;99251.44;;;3.82
66170;BMP280;66757;44.024;20.456;2023-01-25T05:25:26;99247.88;;;3.76
66170;BMP280;66757;44.024;20.456;2023-01-25T05:28:11;99234.81;;;3.51
66170;BMP280;66757;44.024;20.456;2023-01-25T05:30:36;99245.47;;;3.75
66170;BMP280;66757;44.024;20.456;2023-01-25T05:33:02;99243.00;;;3.80
66170;BMP280;66757;44.024;20.456;2023-01-25T05:35:28;99239.44;;;4.22
66170;BMP280;66757;44.024;20.456;2023-01-25T05:37:59;99244.88;;;4.39
66170;BMP280;66757;44.024;20.456;2023-01-25T05:40:25;99252.25;;;4.30
66170;BMP280;66757;44.024;20.456;2023-01-25T05:42:55;99250.22;;;4.03
66170;BMP280;66757;44.024;20.456;2023-01-25T05:45:21;99249.56;;;3.89
66170;BMP280;66757;44.024;20.456;2023-01-25T05:47:57;99246.31;;;4.23
66170;BMP280;66757;44.024;20.456;2023-01-25T05:50:24;99250.72;;;3.75
66170;BMP280;66757;44.024;20.456;2023-01-25T05:52:50;99254.84;;;4.00
66170;BMP280;66757;44.024;20.456;2023-01-25T05:55:16;99262.94;;;3.99
66170;BMP280;66757;44.024;20.456;2023-01-25T05:57:41;99254.44;;;4.04
66170;BMP280;66757;44.024;20.456;2023-01-25T06:00:08;99260.00;;;3.95
66170;BMP280;66757;44.024;20.456;2023-01-25T06:02:34;99262.06;;;4.23
66170;BMP280;66757;44.024;20.456;2023-01-25T06:05:03;99259.28;;;4.37
66170;BMP280;66757;44.024;20.456;2023-01-25T06:07:32;99254.09;;;4.30
66170;BMP280;66757;44.024;20.456;2023-01-25T06:10:00;99253.19;;;4.06
66170;BMP280;66757;44.024;20.456;2023-01-25T06:12:25;99255.38;;;4.09
66170;BMP280;66757;44.024;20.456;2023-01-25T06:14:51;99255.09;;;3.81
66170;BMP280;66757;44.024;20.456;2023-01-25T06:17:17;99252.31;;;3.76
66170;BMP280;66757;44.024;20.456;2023-01-25T06:19:43;99251.22;;;3.83
66170;BMP280;66757;44.024;20.456;2023-01-25T06:22:09;99254.44;;;4.04
66170;BMP280;66757;44.024;20.456;2023-01-25T06:24:35;99256.09;;;3.98
66170;BMP280;66757;44.024;20.456;2023-01-25T06:27:01;99250.25;;;4.14
66170;BMP280;66757;44.024;20.456;2023-01-25T06:29:27;99248.81;;;4.00
66170;BMP280;66757;44.024;20.456;2023-01-25T06:31:52;99247.88;;;3.94
66170;BMP280;66757;44.024;20.456;2023-01-25T06:34:20;99250.09;;;3.11
66170;BMP280;66757;44.024;20.456;2023-01-25T06:36:47;99243.63;;;3.57
66170;BMP280;66757;44.024;20.456;2023-01-25T06:39:13;99243.06;;;4.10
66170;BMP280;66757;44.024;20.456;2023-01-25T06:41:38;99238.41;;;3.93
66170;BMP280;66757;44.024;20.456;2023-01-25T06:44:04;99244.31;;;4.37
66170;BMP280;66757;44.024;20.456;2023-01-25T06:46:31;99247.22;;;4.29
66170;BMP280;66757;44.024;20.456;2023-01-25T06:48:56;99244.66;;;4.11
66170;BMP280;66757;44.024;20.456;2023-01-25T06:51:23;99246.69;;;4.39
66170;BMP280;66757;44.024;20.456;2023-01-25T06:53:48;99246.25;;;4.42
66170;BMP280;66757;44.024;20.456;2023-01-25T06:56:16;99254.38;;;3.92
66170;BMP280;66757;44.024;20.456;2023-01-25T06:58:44;99250.66;;;4.29
66170;BMP280;66757;44.024;20.456;2023-01-25T07:01:18;99259.53;;;4.47
66170;BMP280;66757;44.024;20.456;2023-01-25T07:03:48;99248.56;;;4.20
66170;BMP280;66757;44.024;20.456;2023-01-25T07:06:14;99247.69;;;4.56
66170;BMP280;66757;44.024;20.456;2023-01-25T07:08:39;99240.41;;;4.40
66170;BMP280;66757;44.024;20.456;2023-01-25T07:11:07;99245.63;;;4.28
66170;BMP280;66757;44.024;20.456;2023-01-25T07:13:36;99242.88;;;4.53
66170;BMP280;66757;44.024;20.456;2023-01-25T07:16:04;99242.56;;;4.61
66170;BMP280;66757;44.024;20.456;2023-01-25T07:18:31;99242.00;;;4.29
66170;BMP280;66757;44.024;20.456;2023-01-25T07:21:04;99243.91;;;4.22
66170;BMP280;66757;44.024;20.456;2023-01-25T07:23:31;99243.16;;;4.33
66170;BMP280;66757;44.024;20.456;2023-01-25T07:25:58;99236.50;;;4.30
66170;BMP280;66757;44.024;20.456;2023-01-25T07:28:23;99236.31;;;4.44
66170;BMP280;66757;44.024;20.456;2023-01-25T07:30:50;99233.41;;;4.22
66170;BMP280;66757;44.024;20.456;2023-01-25T07:33:16;99238.09;;;4.50
66170;BMP280;66757;44.024;20.456;2023-01-25T07:35:41;99241.72;;;4.49
66170;BMP280;66757;44.024;20.456;2023-01-25T07:38:07;99244.47;;;4.54
66170;BMP280;66757;44.024;20.456;2023-01-25T07:40:33;99250.03;;;4.46
66170;BMP280;66757;44.024;20.456;2023-01-25T07:42:58;99246.09;;;4.55
66170;BMP280;66757;44.024;20.456;2023-01-25T07:45:24;99242.34;;;4.62
66170;BMP280;66757;44.024;20.456;2023-01-25T07:47:59;99245.84;;;4.56
66170;BMP280;66757;44.024;20.456;2023-01-25T07:50:26;99247.38;;;4.64
66170;BMP280;66757;44.024;20.456;2023-01-25T07:52:52;99246.41;;;4.47
66170;BMP280;66757;44.024;20.456;2023-01-25T07:55:18;99244.00;;;4.57
66170;BMP280;66757;44.024;20.456;2023-01-25T07:57:43;99249.44;;;4.44
66170;BMP280;66757;44.024;20.456;2023-01-25T08:00:09;99246.88;;;4.25
66170;BMP280;66757;44.024;20.456;2023-01-25T08:02:35;99244.03;;;3.79
66170;BMP280;66757;44.024;20.456;2023-01-25T08:05:00;99237.03;;;4.21
66170;BMP280;66757;44.024;20.456;2023-01-25T08:07:27;99232.28;;;4.71
66170;BMP280;66757;44.024;20.456;2023-01-25T08:09:53;99230.69;;;4.70
66170;BMP280;66757;44.024;20.456;2023-01-25T08:12:19;99218.59;;;4.81
66170;BMP280;66757;44.024;20.456;2023-01-25T08:14:44;99227.16;;;4.76
66170;BMP280;66757;44.024;20.456;2023-01-25T08:17:09;99223.34;;;4.60
66170;BMP280;66757;44.024;20.456;2023-01-25T08:19:35;99220.72;;;4.49
66170;BMP280;66757;44.024;20.456;2023-01-25T08:22:00;99219.59;;;4.68
66170;BMP280;66757;44.024;20.456;2023-01-25T08:24:26;99218.53;;;4.57
66170;BMP280;66757;44.024;20.456;2023-01-25T08:26:51;99219.06;;;5.01
66170;BMP280;66757;44.024;20.456;2023-01-25T08:29:17;99221.63;;;4.54
66170;BMP280;66757;44.024;20.456;2023-01-25T08:31:42;99219.97;;;4.72
66170;BMP280;66757;44.024;20.456;2023-01-25T08:34:09;99217.72;;;4.57
66170;BMP280;66757;44.024;20.456;2023-01-25T08:36:34;99207.63;;;4.84
66170;BMP280;66757;44.024;20.456;2023-01-25T08:39:05;99215.22;;;4.92
66170;BMP280;66757;44.024;20.456;2023-01-25T08:41:32;99207.38;;;4.74
66170;BMP280;66757;44.024;20.456;2023-01-25T08:43:58;99215.28;;;4.85
66170;BMP280;66757;44.024;20.456;2023-01-25T08:46:25;99213.22;;;4.87
66170;BMP280;66757;44.024;20.456;2023-01-25T08:48:55;99213.44;;;4.74
66170;BMP280;66757;44.024;20.456;2023-01-25T08:51:21;99210.03;;;4.85
66170;BMP280;66757;44.024;20.456;2023-01-25T08:53:47;99211.16;;;4.66
66170;BMP280;66757;44.024;20.456;2023-01-25T08:56:13;99207.22;;;4.57
66170;BMP280;66757;44.024;20.456;2023-01-25T08:58:42;99205.00;;;4.95
66170;BMP280;66757;44.024;20.456;2023-01-25T09:01:09;99207.13;;;4.52
66170;BMP280;66757;44.024;20.456;2023-01-25T09:03:37;99207.22;;;4.57
66170;BMP280;66757;44.024;20.456;2023-01-25T09:06:04;99205.31;;;4.76
66170;BMP280;66757;44.024;20.456;2023-01-25T09:08:29;99210.63;;;4.46
66170;BMP280;66757;44.024;20.456;2023-01-25T09:11:02;99204.78;;;4.85
66170;BMP280;66757;44.024;20.456;2023-01-25T09:13:28;99204.06;;;4.67
66170;BMP280;66757;44.024;20.456;2023-01-25T09:16:03;99201.25;;;4.38
66170;BMP280;66757;44.024;20.456;2023-01-25T09:18:30;99200.25;;;4.09
66170;BMP280;66757;44.024;20.456;2023-01-25T09:20:55;99193.31;;;4.15
66170;BMP280;66757;44.024;20.456;2023-01-25T09:23:21;99194.22;;;4.50
66170;BMP280;66757;44.024;20.456;2023-01-25T09:25:58;99196.63;;;4.52
66170;BMP280;66757;44.024;20.456;2023-01-25T09:28:24;99192.13;;;5.06
66170;BMP280;66757;44.024;20.456;2023-01-25T09:30:58;99185.34;;;4.86
66170;BMP280;66757;44.024;20.456;2023-01-25T09:33:29;99186.41;;;4.44
66170;BMP280;66757;44.024;20.456;2023-01-25T09:35:54;99180.19;;;5.03
66170;BMP280;66757;44.024;20.456;2023-01-25T09:38:20;99180.31;;;4.73
66170;BMP280;66757;44.024;20.456;2023-01-25T09:46:36;99172.53;;;4.78
66170;BMP280;66757;44.024;20.456;2023-01-25T09:54:25;99159.53;;;5.07
66170;BMP280;66757;44.024;20.456;2023-01-25T09:56:53;99155.41;;;4.99
66170;BMP280;66757;44.024;20.456;2023-01-25T09:59:22;99159.28;;;4.85
66170;BMP280;66757;44.024;20.456;2023-01-25T10:01:58;99160.97;;;5.14
66170;BMP280;66757;44.024;20.456;2023-01-25T10:04:26;99160.09;;;5.20
66170;BMP280;66757;44.024;20.456;2023-01-25T10:06:56;99153.44;;;4.94
66170;BMP280;66757;44.024;20.456;2023-01-25T10:12:20;99152.28;;;5.14
66170;BMP280;66757;44.024;20.456;2023-01-25T10:14:46;99153.41;;;5.41
66170;BMP280;66757;44.024;20.456;2023-01-25T10:17:36;99147.25;;;5.36
66170;BMP280;66757;44.024;20.456;2023-01-25T10:23:19;99136.09;;;4.82
66170;BMP280;66757;44.024;20.456;2023-01-25T10:28:26;99133.34;;;4.65
66170;BMP280;66757;44.024;20.456;2023-01-25T10:31:16;99129.47;;;4.56
66170;BMP280;66757;44.024;20.456;2023-01-25T10:33:44;99123.63;;;4.77
66170;BMP280;66757;44.024;20.456;2023-01-25T10:36:23;99128.66;;;4.90
66170;BMP280;66757;44.024;20.456;2023-01-25T10:38:51;99127.63;;;4.80
66170;BMP280;66757;44.024;20.456;2023-01-25T10:41:38;99120.66;;;4.97
66170;BMP280;66757;44.024;20.456;2023-01-25T10:44:07;99117.00;;;4.86
66170;BMP280;66757;44.024;20.456;2023-01-25T10:47:10;99109.69;;;4.88
66170;BMP280;66757;44.024;20.456;2023-01-25T10:54:41;99107.50;;;5.09
66170;BMP280;66757;44.024;20.456;2023-01-25T10:57:08;99102.34;;;5.54
66170;BMP280;66757;44.024;20.456;2023-01-25T10:59:36;99097.47;;;5.63
66170;BMP280;66757;44.024;20.456;2023-01-25T11:02:37;99095.81;;;5.16
66170;BMP280;66757;44.024;20.456;2023-01-25T11:07:48;99087.75;;;5.35
66170;BMP280;66757;44.024;20.456;2023-01-25T11:15:37;99073.19;;;5.72
66170;BMP280;66757;44.024;20.456;2023-01-25T11:18:04;99068.13;;;5.14
66170;BMP280;66757;44.024;20.456;2023-01-25T11:20:32;99066.53;;;5.13
66170;BMP280;66757;44.024;20.456;2023-01-25T11:22:57;99061.09;;;5.31
66170;BMP280;66757;44.024;20.456;2023-01-25T11:25:28;99060.53;;;5.41
66170;BMP280;66757;44.024;20.456;2023-01-25T11:28:29;99061.56;;;5.40
66170;BMP280;66757;44.024;20.456;2023-01-25T11:30:54;99062.25;;;5.35
66170;BMP280;66757;44.024;20.456;2023-01-25T11:33:21;99054.78;;;5.44
66170;BMP280;66757;44.024;20.456;2023-01-25T11:36:11;99052.41;;;5.42
66170;BMP280;66757;44.024;20.456;2023-01-25T11:38:44;99046.41;;;5.18
66170;BMP280;66757;44.024;20.456;2023-01-25T11:41:23;99048.91;;;4.73
66170;BMP280;66757;44.024;20.456;2023-01-25T11:47:14;99031.06;;;4.75
66170;BMP280;66757;44.024;20.456;2023-01-25T11:49:57;99027.03;;;5.08
66170;BMP280;66757;44.024;20.456;2023-01-25T11:52:39;99023.16;;;4.99
66170;BMP280;66757;44.024;20.456;2023-01-25T12:13:44;98994.00;;;5.28
66170;BMP280;66757;44.024;20.456;2023-01-25T12:16:22;98994.28;;;5.60
66170;BMP280;66757;44.024;20.456;2023-01-25T12:18:57;98995.63;;;5.46
66170;BMP280;66757;44.024;20.456;2023-01-25T12:28:06;98993.78;;;5.47
66170;BMP280;66757;44.024;20.456;2023-01-25T12:30:25;98986.69;;;5.47
66170;BMP280;66757;44.024;20.456;2023-01-25T12:33:00;98977.63;;;5.55
66170;BMP280;66757;44.024;20.456;2023-01-25T12:38:03;98968.03;;;5.32
66170;BMP280;66757;44.024;20.456;2023-01-25T12:40:40;98963.75;;;5.59
66170;BMP280;66757;44.024;20.456;2023-01-25T12:43:14;98966.91;;;5.45
66170;BMP280;66757;44.024;20.456;2023-01-25T12:45:43;98963.13;;;5.07
66170;BMP280;66757;44.024;20.456;2023-01-25T12:48:15;98953.19;;;4.69
66170;BMP280;66757;44.024;20.456;2023-01-25T12:50:50;98955.63;;;5.16
66170;BMP280;66757;44.024;20.456;2023-01-25T12:53:21;98953.09;;;4.64
66170;BMP280;66757;44.024;20.456;2023-01-25T12:55:48;98950.44;;;5.04
66170;BMP280;66757;44.024;20.456;2023-01-25T12:58:37;98946.09;;;5.10
66170;BMP280;66757;44.024;20.456;2023-01-25T13:11:41;98947.22;;;4.74
66170;BMP280;66757;44.024;20.456;2023-01-25T13:17:10;98956.38;;;4.71
66170;BMP280;66757;44.024;20.456;2023-01-25T13:22:02;98946.44;;;5.02
66170;BMP280;66757;44.024;20.456;2023-01-25T13:24:30;98947.06;;;5.20
66170;BMP280;66757;44.024;20.456;2023-01-25T13:27:23;98945.38;;;4.86
66170;BMP280;66757;44.024;20.456;2023-01-25T13:37:18;98943.44;;;4.81
66170;BMP280;66757;44.024;20.456;2023-01-25T13:44:46;98931.34;;;5.09
66170;BMP280;66757;44.024;20.456;2023-01-25T13:47:15;98919.25;;;5.08
66170;BMP280;66757;44.024;20.456;2023-01-25T13:49:47;98930.41;;;5.32
66170;BMP280;66757;44.024;20.456;2023-01-25T13:52:16;98921.66;;;4.97
66170;BMP280;66757;44.024;20.456;2023-01-25T13:54:46;98921.25;;;4.89
66170;BMP280;66757;44.024;20.456;2023-01-25T13:57:19;98924.75;;;4.94
66170;BMP280;66757;44.024;20.456;2023-01-25T13:59:46;98925.88;;;4.99
66170;BMP280;66757;44.024;20.456;2023-01-25T14:02:17;98928.28;;;4.72
66170;BMP280;66757;44.024;20.456;2023-01-25T14:04:46;98922.53;;;4.75
66170;BMP280;66757;44.024;20.456;2023-01-25T14:07:16;98922.22;;;5.00
66170;BMP280;66757;44.024;20.456;2023-01-25T14:09:43;98913.53;;;4.99
66170;BMP280;66757;44.024;20.456;2023-01-25T14:12:12;98914.28;;;5.28
66170;BMP280;66757;44.024;20.456;2023-01-25T14:14:44;98905.66;;;5.16
66170;BMP280;66757;44.024;20.456;2023-01-25T14:17:17;98910.34;;;4.69
66170;BMP280;66757;44.024;20.456;2023-01-25T14:19:48;98911.69;;;5.00
66170;BMP280;66757;44.024;20.456;2023-01-25T14:25:23;98905.53;;;5.06
66170;BMP280;66757;44.024;20.456;2023-01-25T14:27:50;98911.69;;;5.00
66170;BMP280;66757;44.024;20.456;2023-01-25T14:30:21;98906.53;;;4.48
66170;BMP280;66757;44.024;20.456;2023-01-25T14:32:48;98900.31;;;4.66
66170;BMP280;66757;44.024;20.456;2023-01-25T14:35:37;98900.16;;;4.72
66170;BMP280;66757;44.024;20.456;2023-01-25T14:40:54;98913.72;;;4.41
66170;BMP280;66757;44.024;20.456;2023-01-25T14:43:21;98908.72;;;4.27
66170;BMP280;66757;44.024;20.456;2023-01-25T14:45:49;98910.66;;;4.20
66170;BMP280;66757;44.024;20.456;2023-01-25T14:48:35;98912.94;;;4.28
66170;BMP280;66757;44.024;20.456;2023-01-25T14:51:09;98910.56;;;4.15
66170;BMP280;66757;44.024;20.456;2023-01-25T14:53:39;98911.34;;;4.27
66170;BMP280;66757;44.024;20.456;2023-01-25T14:56:17;98915.69;;;4.22
66170;BMP280;66757;44.024;20.456;2023-01-25T14:58:45;98910.84;;;4.42
66170;BMP280;66757;44.024;20.456;2023-01-25T15:01:22;98908.06;;;4.32
66170;BMP280;66757;44.024;20.456;2023-01-25T15:03:50;98913.16;;;4.39
66170;BMP280;66757;44.024;20.456;2023-01-25T15:06:15;98915.31;;;4.42
66170;BMP280;66757;44.024;20.456;2023-01-25T15:08:42;98915.56;;;4.28
66170;BMP280;66757;44.024;20.456;2023-01-25T15:11:29;98907.56;;;4.47
66170;BMP280;66757;44.024;20.456;2023-01-25T15:14:20;98919.53;;;4.43
66170;BMP280;66757;44.024;20.456;2023-01-25T15:16:46;98920.81;;;4.28
66170;BMP280;66757;44.024;20.456;2023-01-25T15:19:29;98915.25;;;4.37
66170;BMP280;66757;44.024;20.456;2023-01-25T15:21:57;98907.56;;;4.47
66170;BMP280;66757;44.024;20.456;2023-01-25T15:24:23;98909.03;;;4.54
66170;BMP280;66757;44.024;20.456;2023-01-25T15:26:52;98894.06;;;4.55
66170;BMP280;66757;44.024;20.456;2023-01-25T15:29:20;98898.00;;;4.57
66170;BMP280;66757;44.024;20.456;2023-01-25T15:31:48;98897.22;;;4.69
66170;BMP280;66757;44.024;20.456;2023-01-25T15:34:25;98897.22;;;4.69
66170;BMP280;66757;44.024;20.456;2023-01-25T15:36:53;98907.56;;;4.47
66170;BMP280;66757;44.024;20.456;2023-01-25T15:39:19;98899.09;;;4.45
66170;BMP280;66757;44.024;20.456;2023-01-25T15:41:46;98901.09;;;4.66
66170;BMP280;66757;44.024;20.456;2023-01-25T15:44:12;98897.53;;;4.72
66170;BMP280;66757;44.024;20.456;2023-01-25T15:46:40;98894.72;;;4.62
66170;BMP280;66757;44.024;20.456;2023-01-25T15:49:07;98892.16;;;4.27
66170;BMP280;66757;44.024;20.456;2023-01-25T15:51:35;98889.00;;;4.65
66170;BMP280;66757;44.024;20.456;2023-01-25T15:54:01;98892.41;;;4.37
66170;BMP280;66757;44.024;20.456;2023-01-25T15:56:31;98888.81;;;4.83
66170;BMP280;66757;44.024;20.456;2023-01-25T15:59:00;98890.22;;;4.74
66170;BMP280;66757;44.024;20.456;2023-01-25T16:01:29;98890.25;;;4.34
66170;BMP280;66757;44.024;20.456;2023-01-25T16:03:56;98884.06;;;4.28
66170;BMP280;66757;44.024;20.456;2023-01-25T16:06:42;98887.84;;;4.32